Time;durP1;ratioP1;P1;durP2;ratioP2;P2;SDS_P1;SDS_P2;PMS_P1;PMS_P2;Temp;Humidity;BMP_temperature;BMP_pressure;BME280_temperature;BME280_humidity;BME280_pressure;Samples;Min_cycle;Max_cycle;Signal;HPM_P1;HPM_P2
2022/12/28 00:01:07;;;;;;;19.40;13.63;;;0.40;99.90;;;;;;5112090;28;20059;-81
2022/12/28 00:03:36;;;;;;;18.73;12.23;;;0.40;99.90;;;;;;5112121;28;20085;-80
2022/12/28 00:06:05;;;;;;;20.15;12.60;;;0.40;99.90;;;;;;5121873;28;20035;-80
2022/12/28 00:08:31;;;;;;;17.80;12.00;;;0.40;99.90;;;;;;5132924;28;20080;-82
2022/12/28 00:11:02;;;;;;;16.70;11.75;;;0.40;99.90;;;;;;5134102;28;20080;-80
2022/12/28 00:13:32;;;;;;;18.77;12.80;;;0.40;99.90;;;;;;5141786;28;20048;-81
2022/12/28 00:16:09;;;;;;;18.00;11.43;;;0.40;99.90;;;;;;5134579;28;20019;-81
2022/12/28 00:18:36;;;;;;;16.13;11.60;;;0.40;99.90;;;;;;5134097;28;20023;-81
2022/12/28 00:21:04;;;;;;;17.02;10.60;;;0.40;99.90;;;;;;5134019;28;20072;-81
2022/12/28 00:23:30;;;;;;;17.73;10.77;;;0.40;99.90;;;;;;5132732;28;20030;-79
2022/12/28 00:26:08;;;;;;;16.35;10.30;;;0.40;99.90;;;;;;5132450;28;20413;-79
2022/12/28 00:28:35;;;;;;;17.38;9.55;;;0.40;99.90;;;;;;5132411;28;20034;-79
2022/12/28 00:31:01;;;;;;;13.15;10.40;;;0.40;99.90;;;;;;5119874;28;20027;-79
2022/12/28 00:33:27;;;;;;;12.45;9.05;;;0.40;99.90;;;;;;5132185;28;20035;-80
2022/12/28 00:35:58;;;;;;;14.10;9.40;;;0.40;99.90;;;;;;5113814;28;20023;-78
2022/12/28 00:38:24;;;;;;;14.35;9.70;;;0.40;99.90;;;;;;5128413;28;20084;-78
2022/12/28 00:40:51;;;;;;;13.50;8.93;;;0.40;99.90;;;;;;5127105;28;20376;-78
2022/12/28 00:43:18;;;;;;;16.10;9.90;;;0.40;99.90;;;;;;5132212;28;20062;-80
2022/12/28 00:45:44;;;;;;;14.02;9.88;;;0.40;99.90;;;;;;5132081;28;20016;-79
2022/12/28 00:48:10;;;;;;;14.87;9.30;;;0.40;99.90;;;;;;5129022;27;20104;-79
2022/12/28 00:50:36;;;;;;;12.93;9.82;;;0.40;99.90;;;;;;5127268;27;20423;-79
2022/12/28 00:53:02;;;;;;;15.98;10.52;;;0.40;99.90;;;;;;5135849;27;20029;-80
2022/12/28 00:55:28;;;;;;;18.05;10.05;;;0.40;99.90;;;;;;5125849;27;20024;-78
2022/12/28 00:57:57;;;;;;;14.90;9.98;;;0.40;99.90;;;;;;5131436;27;20577;-79
2022/12/28 01:00:23;;;;;;;16.83;10.48;;;0.40;99.90;;;;;;5135957;27;20027;-79
2022/12/28 01:02:49;;;;;;;14.43;10.13;;;0.40;99.90;;;;;;5123271;27;20030;-78
2022/12/28 01:05:15;;;;;;;19.75;12.98;;;0.40;99.90;;;;;;5123453;27;20050;-78
2022/12/28 01:07:40;;;;;;;16.23;11.13;;;0.40;99.90;;;;;;5135637;27;20023;-79
2022/12/28 01:10:07;;;;;;;14.30;10.77;;;0.40;99.90;;;;;;5112053;27;20011;-78
2022/12/28 01:12:33;;;;;;;15.98;10.27;;;0.40;99.90;;;;;;5135470;27;20035;-78
2022/12/28 01:14:59;;;;;;;18.60;11.25;;;0.40;99.90;;;;;;5135347;27;20027;-78
2022/12/28 01:17:25;;;;;;;18.40;11.43;;;0.40;99.90;;;;;;5135431;27;20026;-79
2022/12/28 01:19:50;;;;;;;14.10;9.77;;;0.40;99.90;;;;;;5116955;27;20476;-77
2022/12/28 01:22:16;;;;;;;18.42;11.23;;;0.40;99.90;;;;;;5097947;27;20027;-78
2022/12/28 01:24:42;;;;;;;18.80;10.70;;;0.30;99.90;;;;;;5135175;27;20081;-79
2022/12/28 01:27:08;;;;;;;14.75;10.80;;;0.40;99.90;;;;;;5120938;27;20023;-80
2022/12/28 01:29:34;;;;;;;15.57;10.20;;;0.40;99.90;;;;;;5135514;27;20019;-79
2022/12/28 01:32:00;;;;;;;16.83;10.15;;;0.40;99.90;;;;;;5131954;27;20041;-79
2022/12/28 01:34:26;;;;;;;17.90;12.32;;;0.40;99.90;;;;;;5135231;27;20054;-78
2022/12/28 01:36:51;;;;;;;16.23;10.90;;;0.40;99.90;;;;;;5132672;27;20054;-79
2022/12/28 01:39:17;;;;;;;15.63;11.77;;;0.40;99.90;;;;;;5130169;27;20503;-78
2022/12/28 01:41:43;;;;;;;17.23;10.57;;;0.40;99.90;;;;;;5126416;27;20518;-80
2022/12/28 01:44:09;;;;;;;18.88;10.82;;;0.40;99.90;;;;;;5102302;27;20492;-79
2022/12/28 01:46:44;;;;;;;17.40;10.75;;;0.40;99.90;;;;;;5116610;27;20055;-79
2022/12/28 01:49:18;;;;;;;15.77;10.45;;;0.40;99.90;;;;;;5134935;27;20026;-79
2022/12/28 01:51:57;;;;;;;15.65;11.10;;;0.40;99.90;;;;;;5135111;27;20035;-80
2022/12/28 01:54:28;;;;;;;19.00;10.93;;;0.40;99.90;;;;;;5139372;27;20438;-79
2022/12/28 01:56:54;;;;;;;16.30;10.27;;;0.40;99.90;;;;;;5135255;27;20352;-79
2022/12/28 01:59:24;;;;;;;16.00;11.57;;;0.40;99.90;;;;;;5129089;27;20452;-78
2022/12/28 02:01:52;;;;;;;17.65;12.20;;;0.40;99.90;;;;;;5125470;27;20157;-80
2022/12/28 02:04:19;;;;;;;;;;;0.40;99.90;;;;;;5118717;27;20037;-79
2022/12/28 02:06:46;;;;;;;24.45;12.82;;;0.30;99.90;;;;;;5131927;27;19957;-80
2022/12/28 02:09:41;;;;;;;18.90;12.50;;;0.30;99.90;;;;;;5116405;27;20030;-77
2022/12/28 02:12:14;;;;;;;20.33;13.10;;;0.30;99.90;;;;;;5138876;27;20042;-78
2022/12/28 02:14:41;;;;;;;20.65;11.82;;;0.30;99.90;;;;;;5141845;27;20088;-78
2022/12/28 02:17:09;;;;;;;21.50;12.93;;;0.30;99.90;;;;;;5135396;27;20042;-80
2022/12/28 02:19:45;;;;;;;;;;;0.30;99.90;;;;;;5117040;27;20068;-79
2022/12/28 02:22:38;;;;;;;19.47;11.90;;;0.40;99.90;;;;;;5116024;27;19910;-79
2022/12/28 02:25:36;;;;;;;19.17;12.80;;;0.30;99.90;;;;;;5136141;27;20081;-80
2022/12/28 02:28:08;;;;;;;17.98;12.75;;;0.30;99.90;;;;;;5135052;27;20039;-79
2022/12/28 02:30:43;;;;;;;18.05;10.55;;;0.30;99.90;;;;;;5113512;27;20038;-79
2022/12/28 02:33:34;;;;;;;17.95;12.25;;;0.30;99.90;;;;;;5134975;27;20156;-79
2022/12/28 02:36:11;;;;;;;19.10;11.40;;;0.30;99.90;;;;;;5106224;27;20019;-80
2022/12/28 02:38:43;;;;;;;22.13;11.90;;;0.30;99.90;;;;;;5134296;27;20019;-79
2022/12/28 02:41:17;;;;;;;19.50;12.52;;;0.30;99.90;;;;;;5102230;27;20051;-80
2022/12/28 02:43:43;;;;;;;18.55;12.85;;;0.30;99.90;;;;;;5134226;27;20488;-80
2022/12/28 02:50:04;;;;;;;16.58;12.18;;;0.30;99.90;;;;;;5133551;27;20086;-78
2022/12/28 02:52:06;;;;;;;18.75;12.30;;;0.30;99.90;;;;;;5133618;27;20130;-80
2022/12/28 02:58:19;;;;;;;20.83;12.57;;;0.30;99.90;;;;;;5133406;27;20080;-79
2022/12/28 03:01:08;;;;;;;19.55;12.05;;;0.30;99.90;;;;;;5059773;27;20037;-79
2022/12/28 03:03:49;;;;;;;23.23;14.30;;;0.30;99.90;;;;;;5117983;27;20040;-81
2022/12/28 03:09:30;;;;;;;19.67;14.02;;;0.30;99.90;;;;;;5068111;27;20077;-79
2022/12/28 03:12:02;;;;;;;18.85;12.20;;;0.30;99.90;;;;;;5129221;27;20048;-79
2022/12/28 03:14:36;;;;;;;19.95;14.02;;;0.20;99.90;;;;;;5115062;27;20122;-80
2022/12/28 03:31:12;;;;;;;20.77;12.13;;;0.20;99.90;;;;;;5121040;27;20121;-79
2022/12/28 03:33:41;;;;;;;22.55;13.93;;;0.20;99.90;;;;;;5135781;27;20383;-80
2022/12/28 03:36:14;;;;;;;24.73;12.57;;;0.20;99.90;;;;;;5128081;27;20058;-79
2022/12/28 03:38:54;;;;;;;21.42;13.93;;;0.10;99.90;;;;;;5132979;27;20027;-80
2022/12/28 03:41:32;;;;;;;22.75;14.18;;;0.20;99.90;;;;;;5108637;27;20678;-79
2022/12/28 03:44:03;;;;;;;20.48;14.10;;;0.20;99.90;;;;;;5133409;27;20063;-81
2022/12/28 03:46:44;;;;;;;20.90;13.55;;;0.20;99.90;;;;;;5132903;27;20048;-78
2022/12/28 03:49:10;;;;;;;21.08;12.30;;;0.20;99.90;;;;;;5114139;28;20059;-80
2022/12/28 03:51:37;;;;;;;23.98;13.52;;;0.20;99.90;;;;;;5132631;27;20027;-80
2022/12/28 03:54:03;;;;;;;19.92;12.05;;;0.20;99.90;;;;;;5132803;28;20072;-79
2022/12/28 03:56:28;;;;;;;17.80;12.32;;;0.30;99.90;;;;;;5132580;28;20058;-79
2022/12/28 03:58:54;;;;;;;24.38;13.98;;;0.30;99.90;;;;;;5090248;28;20064;-79
2022/12/28 04:01:20;;;;;;;22.58;13.20;;;0.30;99.90;;;;;;5114272;28;20012;-80
2022/12/28 04:03:46;;;;;;;19.48;12.65;;;0.30;99.90;;;;;;5123880;28;20023;-79
2022/12/28 04:06:15;;;;;;;19.05;13.70;;;0.30;99.90;;;;;;5119430;28;20024;-79
2022/12/28 04:08:42;;;;;;;21.08;12.68;;;0.30;99.90;;;;;;5099616;28;20051;-78
2022/12/28 04:11:08;;;;;;;17.73;11.75;;;0.30;99.90;;;;;;5117183;28;20130;-77
2022/12/28 04:13:34;;;;;;;22.33;13.52;;;0.30;99.90;;;;;;5140093;28;20043;-79
2022/12/28 04:16:03;;;;;;;19.48;12.57;;;0.30;99.90;;;;;;5133906;28;20023;-80
2022/12/28 04:18:31;;;;;;;18.80;13.13;;;0.30;99.90;;;;;;5133580;28;20019;-81
2022/12/28 04:20:57;;;;;;;;;;;0.20;99.90;;;;;;5114830;28;20023;-80
2022/12/28 04:23:22;;;;;;;21.55;12.48;;;0.30;99.90;;;;;;5136183;27;19914;-81
2022/12/28 04:26:05;;;;;;;18.85;13.98;;;0.20;99.90;;;;;;5136810;27;20377;-80
2022/12/28 04:28:32;;;;;;;21.95;12.98;;;0.20;99.90;;;;;;5136746;27;20054;-80
2022/12/28 04:31:00;;;;;;;22.63;13.82;;;0.10;99.90;;;;;;5115940;27;20464;-80
2022/12/28 04:33:26;;;;;;;23.35;13.40;;;0.10;99.90;;;;;;5110893;28;20055;-80
2022/12/28 04:35:53;;;;;;;25.60;15.83;;;0.10;99.90;;;;;;5136302;27;20050;-80
2022/12/28 04:38:19;;;;;;;20.92;12.88;;;0.10;99.90;;;;;;5136518;27;20065;-80
2022/12/28 04:40:45;;;;;;;23.25;13.80;;;0.10;99.90;;;;;;5123055;27;20544;-81
2022/12/28 04:43:11;;;;;;;27.52;16.80;;;0.20;99.90;;;;;;5136423;27;20047;-81
2022/12/28 04:45:37;;;;;;;22.17;14.50;;;0.20;99.90;;;;;;5135322;27;20042;-83
2022/12/28 04:48:03;;;;;;;23.88;14.13;;;0.10;99.90;;;;;;5123632;27;20038;-82
2022/12/28 04:50:35;;;;;;;21.90;15.30;;;0.10;99.90;;;;;;5136923;27;20050;-84
2022/12/28 04:53:01;;;;;;;21.17;12.30;;;0.10;99.90;;;;;;5136317;27;20033;-81
2022/12/28 04:55:27;;;;;;;21.52;13.25;;;0.10;99.90;;;;;;5136631;27;20027;-81
2022/12/28 04:57:53;;;;;;;28.70;16.83;;;0.10;99.90;;;;;;5117923;27;20056;-81
2022/12/28 05:00:19;;;;;;;25.02;14.45;;;0.10;99.90;;;;;;5136121;27;20019;-82
2022/12/28 05:02:44;;;;;;;28.00;16.05;;;0.10;99.90;;;;;;5133736;27;20505;-82
2022/12/28 05:05:10;;;;;;;21.95;14.57;;;0.00;99.90;;;;;;5103932;28;20098;-79
2022/12/28 05:07:37;;;;;;;27.60;16.60;;;0.00;99.90;;;;;;5105416;28;20072;-81
2022/12/28 05:10:03;;;;;;;27.73;16.40;;;0.00;99.90;;;;;;5122637;27;20035;-80
2022/12/28 05:12:29;;;;;;;23.40;15.07;;;0.10;99.90;;;;;;5136008;27;20039;-80
2022/12/28 05:14:54;;;;;;;27.25;16.38;;;0.10;99.90;;;;;;5139308;27;20022;-81
2022/12/28 05:17:20;;;;;;;29.13;16.08;;;0.10;99.90;;;;;;5122323;27;20487;-79
2022/12/28 05:19:46;;;;;;;23.55;16.05;;;0.10;99.90;;;;;;5136152;27;20019;-80
2022/12/28 05:22:14;;;;;;;26.35;17.48;;;0.10;99.90;;;;;;5130509;27;20122;-80
2022/12/28 05:24:40;;;;;;;23.83;16.50;;;0.10;99.90;;;;;;5105754;28;20504;-80
2022/12/28 05:27:06;;;;;;;26.42;15.63;;;0.10;99.90;;;;;;5114957;27;20053;-81
2022/12/28 05:29:32;;;;;;;23.35;15.77;;;0.10;99.90;;;;;;5119615;27;20015;-79
2022/12/28 05:31:57;;;;;;;25.60;15.57;;;0.10;99.90;;;;;;5122436;27;20046;-80
2022/12/28 05:34:23;;;;;;;25.95;14.63;;;0.10;99.90;;;;;;5134141;27;20030;-81
2022/12/28 05:36:49;;;;;;;26.10;16.23;;;0.10;99.90;;;;;;5135228;27;20071;-80
2022/12/28 05:39:15;;;;;;;25.00;15.10;;;0.10;99.90;;;;;;5112489;28;20023;-81
2022/12/28 05:41:41;;;;;;;25.92;16.98;;;0.10;99.90;;;;;;5125884;27;20023;-80
2022/12/28 05:44:07;;;;;;;24.20;14.80;;;0.10;99.90;;;;;;5131815;27;20491;-82
2022/12/28 05:46:34;;;;;;;21.95;14.45;;;0.10;99.90;;;;;;5123961;27;20023;-82
2022/12/28 05:49:00;;;;;;;26.90;18.05;;;0.10;99.90;;;;;;5134986;27;20030;-82
2022/12/28 05:51:29;;;;;;;28.13;16.50;;;0.10;99.90;;;;;;5134895;27;20054;-81
2022/12/28 05:53:57;;;;;;;26.23;17.50;;;0.10;99.90;;;;;;5116791;27;20113;-81
2022/12/28 05:56:23;;;;;;;;;;;0.00;99.90;;;;;;5124764;27;20023;-81
2022/12/28 05:58:55;;;;;;;26.05;14.07;;;0.00;99.90;;;;;;5114083;28;19914;-82
2022/12/28 06:01:23;;;;;;;26.52;16.63;;;0.00;99.90;;;;;;5114134;28;20107;-81
2022/12/28 06:03:56;;;;;;;25.73;16.20;;;0.00;99.90;;;;;;5118512;27;20020;-81
2022/12/28 06:06:22;;;;;;;27.90;16.13;;;0.00;99.90;;;;;;5130109;27;20026;-82
2022/12/28 06:08:49;;;;;;;26.85;18.13;;;0.00;99.90;;;;;;5138812;27;20049;-83
2022/12/28 06:11:21;;;;;;;28.10;18.58;;;0.00;99.90;;;;;;5116827;28;20046;-80
2022/12/28 06:13:47;;;;;;;28.08;18.92;;;0.00;99.90;;;;;;5126787;27;20132;-82
2022/12/28 06:16:16;;;;;;;28.20;17.20;;;0.00;99.90;;;;;;5136459;27;20388;-82
2022/12/28 06:18:43;;;;;;;32.50;20.13;;;0.00;99.90;;;;;;5135950;27;20027;-83
2022/12/28 06:21:14;;;;;;;31.70;18.80;;;0.00;99.90;;;;;;5127315;27;20103;-81
2022/12/28 06:23:41;;;;;;;33.72;18.38;;;0.00;99.90;;;;;;5115718;28;20019;-81
2022/12/28 06:26:08;;;;;;;31.40;19.92;;;0.00;99.90;;;;;;5114465;28;20046;-81
2022/12/28 06:28:36;;;;;;;26.42;18.95;;;0.00;99.90;;;;;;5095560;28;20188;-81
2022/12/28 06:31:15;;;;;;;30.85;21.50;;;0.00;99.90;;;;;;5105089;28;20031;-81
2022/12/28 06:33:42;;;;;;;32.30;21.05;;;0.00;99.90;;;;;;5113681;28;20427;-81
2022/12/28 06:36:12;;;;;;;33.63;21.13;;;-0.10;99.90;;;;;;5114443;28;20481;-84
2022/12/28 06:38:38;;;;;;;34.75;20.98;;;0.00;99.90;;;;;;5114146;28;20031;-82
2022/12/28 06:41:06;;;;;;;31.58;20.20;;;0.00;99.90;;;;;;5094315;28;20096;-82
2022/12/28 06:43:32;;;;;;;34.80;20.40;;;0.00;99.90;;;;;;5113254;28;20473;-82
2022/12/28 06:45:59;;;;;;;29.07;20.67;;;0.00;99.90;;;;;;5112783;28;20062;-82
2022/12/28 06:48:25;;;;;;;29.95;18.85;;;0.00;99.90;;;;;;5114137;28;20032;-81
2022/12/28 06:51:06;;;;;;;33.22;18.83;;;0.00;99.90;;;;;;5111784;28;20027;-86
2022/12/28 06:53:35;;;;;;;31.13;19.55;;;0.00;99.90;;;;;;5100085;28;20023;-81
2022/12/28 06:56:15;;;;;;;27.70;20.30;;;-0.10;99.90;;;;;;5123051;28;20019;-81
2022/12/28 06:58:42;;;;;;;29.92;18.38;;;-0.10;99.90;;;;;;5120047;28;20019;-81
2022/12/28 07:01:15;;;;;;;31.43;19.73;;;-0.10;99.90;;;;;;5115747;28;20393;-81
2022/12/28 07:03:42;;;;;;;31.27;18.17;;;-0.10;99.90;;;;;;5119671;27;20016;-81
2022/12/28 07:06:09;;;;;;;33.38;19.88;;;-0.10;99.90;;;;;;5133708;27;20055;-83
2022/12/28 07:08:35;;;;;;;33.77;18.77;;;-0.10;99.90;;;;;;5133360;27;20098;-83
2022/12/28 07:11:13;;;;;;;33.97;21.63;;;-0.10;99.90;;;;;;5118136;27;20271;-83
2022/12/28 07:13:39;;;;;;;31.95;19.25;;;-0.10;99.90;;;;;;5099454;27;20023;-81
2022/12/28 07:16:08;;;;;;;28.58;21.02;;;-0.20;99.90;;;;;;5122934;27;20019;-82
2022/12/28 07:18:36;;;;;;;29.65;18.60;;;-0.20;99.90;;;;;;5129605;27;20080;-83
2022/12/28 07:21:12;;;;;;;31.75;19.45;;;-0.10;99.90;;;;;;5096682;28;20065;-81
2022/12/28 07:23:38;;;;;;;35.55;20.08;;;-0.10;99.90;;;;;;5112713;28;20027;-81
2022/12/28 07:26:12;;;;;;;31.15;19.35;;;-0.10;99.90;;;;;;5098739;28;20043;-79
2022/12/28 07:28:41;;;;;;;35.95;20.63;;;0.00;99.90;;;;;;5095268;28;20383;-81
2022/12/28 07:31:09;;;;;;;27.80;16.63;;;0.00;99.90;;;;;;5094673;28;20024;-82
2022/12/28 07:33:36;;;;;;;28.55;17.75;;;0.10;99.90;;;;;;5112643;28;20019;-80
2022/12/28 07:36:07;;;;;;;32.05;18.70;;;0.10;99.90;;;;;;5112284;28;20016;-81
2022/12/28 07:38:33;;;;;;;29.80;20.17;;;0.10;99.90;;;;;;5112797;28;20020;-81
2022/12/28 07:41:06;;;;;;;23.48;16.08;;;0.10;99.90;;;;;;5112068;28;20028;-79
2022/12/28 07:43:33;;;;;;;24.92;17.45;;;0.10;99.90;;;;;;5112144;28;20051;-82
2022/12/28 07:46:12;;;;;;;27.77;18.20;;;0.10;99.90;;;;;;5111758;28;20055;-82
2022/12/28 07:48:39;;;;;;;27.25;18.15;;;0.20;99.90;;;;;;5113455;28;20026;-82
2022/12/28 07:51:15;;;;;;;29.38;20.55;;;0.20;99.90;;;;;;5115649;28;20026;-84
2022/12/28 07:53:43;;;;;;;29.33;19.33;;;0.20;99.90;;;;;;5099254;28;20036;-83
2022/12/28 07:56:08;;;;;;;;;;;0.20;99.90;;;;;;5112765;28;20011;-82
2022/12/28 07:58:35;;;;;;;28.45;18.85;;;0.20;99.90;;;;;;5105442;28;19903;-82
2022/12/28 08:01:07;;;;;;;27.38;16.83;;;0.10;99.90;;;;;;5112500;28;20043;-82
2022/12/28 08:03:34;;;;;;;27.13;18.63;;;0.20;99.90;;;;;;5118076;28;20388;-81
2022/12/28 08:06:09;;;;;;;23.88;17.10;;;0.20;99.90;;;;;;5115018;28;20459;-81
2022/12/28 08:08:36;;;;;;;25.42;18.00;;;0.20;99.90;;;;;;5134067;28;20445;-82
2022/12/28 08:11:03;;;;;;;;;;;0.20;99.90;;;;;;5142919;28;20118;-82
2022/12/28 08:13:31;;;;;;;29.83;19.33;;;0.20;99.90;;;;;;5137455;28;19911;-81
2022/12/28 08:15:57;;;;;;;28.75;16.90;;;0.20;99.90;;;;;;5114810;28;20023;-82
2022/12/28 08:18:23;;;;;;;31.17;19.52;;;0.20;99.90;;;;;;5118866;28;20072;-81
2022/12/28 08:20:49;;;;;;;29.90;18.40;;;0.20;99.90;;;;;;5107694;28;20027;-83
2022/12/28 08:23:15;;;;;;;28.90;17.50;;;0.20;99.90;;;;;;5127418;28;20023;-83
2022/12/28 08:25:40;;;;;;;33.53;20.27;;;0.20;99.90;;;;;;5116245;28;20127;-83
2022/12/28 08:28:06;;;;;;;31.85;18.98;;;0.20;99.90;;;;;;5110519;28;20024;-86
2022/12/28 08:30:32;;;;;;;36.03;22.63;;;0.20;99.90;;;;;;5119212;28;20071;-81
2022/12/28 08:33:01;;;;;;;30.85;21.73;;;0.30;99.90;;;;;;5112284;28;20031;-82
2022/12/28 08:35:27;;;;;;;35.10;21.38;;;0.20;99.90;;;;;;5107787;28;20077;-81
2022/12/28 08:37:55;;;;;;;31.67;19.60;;;0.20;99.90;;;;;;5119378;28;20031;-82
2022/12/28 08:40:26;;;;;;;32.15;18.95;;;0.20;99.90;;;;;;5111742;28;20020;-82
2022/12/28 08:42:55;;;;;;;34.80;23.63;;;0.30;99.90;;;;;;5085358;28;20070;-84
2022/12/28 08:45:21;;;;;;;34.25;21.17;;;0.30;99.90;;;;;;5111181;28;20027;-82
2022/12/28 08:47:47;;;;;;;38.33;27.52;;;0.30;99.90;;;;;;5111372;28;20023;-83
2022/12/28 08:50:14;;;;;;;34.97;22.83;;;0.30;99.90;;;;;;5111738;28;20028;-83
2022/12/28 08:52:40;;;;;;;31.75;22.13;;;0.30;99.90;;;;;;5093124;28;20063;-81
2022/12/28 08:55:06;;;;;;;37.05;23.40;;;0.30;99.90;;;;;;5111622;28;20055;-81
2022/12/28 08:57:33;;;;;;;35.30;20.60;;;0.30;99.90;;;;;;5093153;28;20165;-81
2022/12/28 08:59:58;;;;;;;30.33;20.38;;;0.30;99.90;;;;;;5111914;28;20102;-81
2022/12/28 09:02:24;;;;;;;32.15;20.98;;;0.30;99.90;;;;;;5113139;28;20498;-83
2022/12/28 09:04:50;;;;;;;49.63;26.27;;;0.30;99.90;;;;;;5128203;28;20026;-81
2022/12/28 09:07:16;;;;;;;27.85;20.63;;;0.30;99.90;;;;;;5133002;28;20027;-80
2022/12/28 09:09:42;;;;;;;33.88;20.40;;;0.30;99.90;;;;;;5135661;27;20019;-83
2022/12/28 09:12:08;;;;;;;32.85;19.05;;;0.30;99.90;;;;;;5136376;27;20031;-80
2022/12/28 09:14:34;;;;;;;29.85;19.50;;;0.30;99.90;;;;;;5136031;27;20054;-82
2022/12/28 09:17:01;;;;;;;30.85;20.40;;;0.30;99.90;;;;;;5135993;27;20023;-81
2022/12/28 09:19:27;;;;;;;28.30;17.55;;;0.30;99.90;;;;;;5135899;27;20369;-81
2022/12/28 09:21:54;;;;;;;24.42;17.23;;;0.30;99.90;;;;;;5135287;27;20053;-82
2022/12/28 09:24:21;;;;;;;22.35;15.90;;;0.30;99.90;;;;;;5135441;27;20050;-81
2022/12/28 09:26:47;;;;;;;25.33;18.17;;;0.30;99.90;;;;;;5124293;27;20072;-81
2022/12/28 09:29:14;;;;;;;24.70;16.00;;;0.30;99.90;;;;;;5135979;27;20023;-82
2022/12/28 09:31:43;;;;;;;26.80;18.58;;;0.30;99.90;;;;;;5132413;27;20035;-84
2022/12/28 09:34:11;;;;;;;27.52;18.38;;;0.30;99.90;;;;;;5135199;27;20467;-82
2022/12/28 09:36:43;;;;;;;27.45;19.45;;;0.40;99.90;;;;;;5135341;27;20035;-83
2022/12/28 09:39:17;;;;;;;28.45;19.40;;;0.40;99.90;;;;;;5131837;27;20506;-82
2022/12/28 09:41:49;;;;;;;27.23;18.90;;;0.30;99.90;;;;;;5127374;27;20027;-84
2022/12/28 09:44:33;;;;;;;26.48;17.20;;;0.30;99.90;;;;;;5134887;27;20463;-84
2022/12/28 09:47:11;;;;;;;32.33;20.60;;;0.40;99.90;;;;;;5137688;27;20054;-85
2022/12/28 09:49:46;;;;;;;33.45;21.88;;;0.40;99.90;;;;;;5103504;28;20018;-83
2022/12/28 09:52:25;;;;;;;31.83;19.52;;;0.40;99.90;;;;;;5115447;28;20042;-85
2022/12/28 09:54:52;;;;;;;27.33;19.98;;;0.40;99.90;;;;;;5096318;27;20475;-82
2022/12/28 09:57:19;;;;;;;36.07;20.97;;;0.40;99.90;;;;;;5124523;27;20476;-84
2022/12/28 09:59:56;;;;;;;27.98;20.48;;;0.40;99.90;;;;;;5097568;28;20272;-85
2022/12/28 10:02:27;;;;;;;34.20;23.38;;;0.40;99.90;;;;;;5114646;28;20057;-81
2022/12/28 10:04:53;;;;;;;34.42;22.33;;;0.40;99.90;;;;;;5112555;27;20019;-81
2022/12/28 10:07:19;;;;;;;36.65;22.00;;;0.40;99.90;;;;;;5135834;27;20414;-82
2022/12/28 10:09:46;;;;;;;35.75;22.60;;;0.40;99.90;;;;;;5141800;27;20034;-81
2022/12/28 10:12:18;;;;;;;33.40;22.48;;;0.40;99.90;;;;;;5144391;27;20042;-83
2022/12/28 10:14:45;;;;;;;31.02;21.75;;;0.40;99.90;;;;;;5120092;27;20028;-80
2022/12/28 10:17:13;;;;;;;32.78;20.35;;;0.40;99.90;;;;;;5114929;28;20020;-81
2022/12/28 10:19:39;;;;;;;34.72;21.83;;;0.40;99.90;;;;;;5115387;28;20028;-82
2022/12/28 10:22:15;;;;;;;37.03;22.05;;;0.40;99.90;;;;;;5113830;28;20023;-82
2022/12/28 10:24:42;;;;;;;46.35;27.83;;;0.40;99.90;;;;;;5115412;28;20028;-82
2022/12/28 10:27:17;;;;;;;34.20;22.30;;;0.40;99.90;;;;;;5117824;28;20129;-80
2022/12/28 10:29:44;;;;;;;37.47;24.38;;;0.40;99.90;;;;;;5113890;28;20024;-80
2022/12/28 10:32:11;;;;;;;32.05;19.48;;;0.40;99.90;;;;;;5113503;28;20036;-81
2022/12/28 10:34:57;;;;;;;31.38;19.10;;;0.40;99.90;;;;;;5113593;28;20016;-82
2022/12/28 10:37:43;;;;;;;;;;;0.40;99.90;;;;;;5095844;28;20088;-83
2022/12/28 10:40:29;;;;;;;23.67;16.17;;;0.40;99.90;;;;;;5113803;28;19907;-83
2022/12/28 10:42:56;;;;;;;32.85;17.52;;;0.40;99.90;;;;;;5113857;28;20030;-81
2022/12/28 10:45:37;;;;;;;33.90;19.38;;;0.40;99.90;;;;;;5113726;28;20052;-81
2022/12/28 10:48:14;;;;;;;32.30;18.02;;;0.30;99.90;;;;;;5082166;28;20034;-81
2022/12/28 10:51:05;;;;;;;33.63;18.90;;;0.30;99.90;;;;;;5113013;28;20031;-79
2022/12/28 10:54:00;;;;;;;31.65;17.70;;;0.30;99.90;;;;;;5103306;28;20024;-83
2022/12/28 10:56:49;;;;;;;30.08;17.55;;;0.30;99.90;;;;;;5111576;28;20091;-80
2022/12/28 10:59:42;;;;;;;34.03;19.20;;;0.30;99.90;;;;;;5109088;28;20027;-83
2022/12/28 11:02:38;;;;;;;35.00;19.70;;;0.30;99.90;;;;;;5113946;28;20015;-83
2022/12/28 11:05:05;;;;;;;37.58;19.90;;;0.20;99.90;;;;;;5132371;27;20007;-82
2022/12/28 11:07:53;;;;;;;38.92;20.60;;;0.20;99.90;;;;;;5133749;27;20023;-83
2022/12/28 11:10:25;;;;;;;33.38;15.57;;;0.30;99.90;;;;;;5133580;27;20007;-82
2022/12/28 11:12:57;;;;;;;29.40;17.20;;;0.20;99.90;;;;;;5133395;27;20572;-84
2022/12/28 11:15:43;;;;;;;30.50;22.67;;;0.30;99.90;;;;;;5119387;27;20019;-84
2022/12/28 11:18:17;;;;;;;34.65;20.20;;;0.30;99.90;;;;;;5133942;27;20030;-82
2022/12/28 11:21:02;;;;;;;36.88;19.50;;;0.30;99.90;;;;;;5106545;27;20114;-81
2022/12/28 11:23:51;;;;;;;37.22;22.88;;;0.20;99.90;;;;;;5128429;27;20019;-82
2022/12/28 11:26:20;;;;;;;33.83;22.83;;;0.30;99.90;;;;;;5138042;27;20050;-82
2022/12/28 11:29:09;;;;;;;39.95;24.00;;;0.20;99.90;;;;;;5114661;27;20555;-83
2022/12/28 11:31:58;;;;;;;32.92;20.88;;;0.30;99.90;;;;;;5116818;27;20042;-84
2022/12/28 11:34:44;;;;;;;40.63;21.95;;;0.30;99.90;;;;;;5106837;27;20455;-82
2022/12/28 11:37:47;;;;;;;33.58;22.13;;;0.30;99.90;;;;;;5114652;27;20023;-82
2022/12/28 11:40:42;;;;;;;38.47;23.73;;;0.30;99.90;;;;;;5102469;28;20032;-83
2022/12/28 11:43:28;;;;;;;38.55;21.88;;;0.30;99.90;;;;;;5112599;28;20030;-81
2022/12/28 11:46:33;;;;;;;38.90;21.13;;;0.20;99.90;;;;;;5097945;28;20107;-82
2022/12/28 11:49:34;;;;;;;39.67;24.55;;;0.30;99.90;;;;;;5102968;28;20044;-82
2022/12/28 11:52:32;;;;;;;36.58;21.58;;;0.20;99.90;;;;;;5085498;28;20491;-81
2022/12/28 11:55:20;;;;;;;34.03;21.60;;;0.20;99.90;;;;;;5109261;28;20392;-80
2022/12/28 11:58:04;;;;;;;34.75;21.08;;;0.30;99.90;;;;;;5114120;28;20035;-81
2022/12/28 12:00:45;;;;;;;33.90;20.38;;;0.20;99.90;;;;;;5109644;28;20011;-79
2022/12/28 12:03:11;;;;;;;37.03;24.45;;;0.20;99.90;;;;;;5113152;28;20108;-79
2022/12/28 12:05:55;;;;;;;36.13;21.60;;;0.20;99.90;;;;;;5112151;28;20053;-79
2022/12/28 12:08:21;;;;;;;33.70;21.83;;;0.20;99.90;;;;;;5112436;28;20015;-79
2022/12/28 12:10:48;;;;;;;25.92;16.38;;;0.30;99.90;;;;;;5114414;28;20035;-80
2022/12/28 12:13:25;;;;;;;34.97;19.10;;;0.30;99.90;;;;;;5113057;28;20399;-79
2022/12/28 12:16:10;;;;;;;;;;;0.20;99.90;;;;;;5101277;28;20028;-77
2022/12/28 12:18:45;;;;;;;32.33;17.42;;;0.20;99.90;;;;;;5111696;28;20280;-79
2022/12/28 12:21:48;;;;;;;31.05;19.85;;;0.20;99.90;;;;;;5112091;28;20059;-78
2022/12/28 12:24:53;;;;;;;32.80;20.20;;;0.20;99.90;;;;;;5102003;28;20040;-79
2022/12/28 12:27:40;;;;;;;32.97;19.48;;;0.20;99.90;;;;;;5106377;28;20388;-80
2022/12/28 12:30:31;;;;;;;31.38;17.50;;;0.20;99.90;;;;;;5111996;28;20019;-81
2022/12/28 12:33:34;;;;;;;26.23;16.35;;;0.20;99.90;;;;;;5106664;28;20039;-83
2022/12/28 12:36:23;;;;;;;33.38;19.70;;;0.20;99.90;;;;;;5085119;28;20611;-81
2022/12/28 12:39:09;;;;;;;31.40;19.08;;;0.20;99.90;;;;;;5111978;28;20023;-80
2022/12/28 12:42:07;;;;;;;29.25;17.67;;;0.20;99.90;;;;;;5102102;28;20016;-80
2022/12/28 12:45:11;;;;;;;25.15;17.92;;;0.20;99.90;;;;;;5103717;28;20083;-80
2022/12/28 12:48:01;;;;;;;25.55;15.88;;;0.20;99.90;;;;;;5117004;27;20472;-81
2022/12/28 12:50:38;;;;;;;28.23;17.13;;;0.20;99.90;;;;;;5114258;28;20092;-80
2022/12/28 12:53:41;;;;;;;26.17;16.40;;;0.20;99.90;;;;;;5108982;28;20053;-79
2022/12/28 12:56:28;;;;;;;23.33;13.70;;;0.20;99.90;;;;;;5115571;28;20491;-78
2022/12/28 12:59:13;;;;;;;;;;;0.20;99.90;;;;;;5112989;28;20036;-80
2022/12/28 13:01:47;;;;;;;20.23;14.82;;;0.20;99.90;;;;;;5112993;28;19908;-80
2022/12/28 13:04:20;;;;;;;23.25;16.67;;;0.10;99.90;;;;;;5125857;27;20510;-80
2022/12/28 13:06:56;;;;;;;25.02;15.05;;;0.10;99.90;;;;;;5124546;27;20042;-83
2022/12/28 13:09:41;;;;;;;29.25;13.55;;;0.10;99.90;;;;;;5095095;28;20046;-81
2022/12/28 13:12:16;;;;;;;21.75;14.52;;;0.10;99.90;;;;;;5114964;28;20057;-82
2022/12/28 13:14:48;;;;;;;19.98;14.27;;;0.10;99.90;;;;;;5115272;28;20060;-83
2022/12/28 13:17:23;;;;;;;23.60;13.43;;;0.10;99.90;;;;;;5114891;28;20034;-83
2022/12/28 13:19:49;;;;;;;24.80;14.30;;;0.10;99.90;;;;;;5115186;28;20357;-82
2022/12/28 13:22:53;;;;;;;22.75;12.93;;;0.10;99.90;;;;;;5114519;28;20031;-83
2022/12/28 13:26:04;;;;;;;20.48;11.30;;;0.10;99.90;;;;;;5095333;28;20065;-83
2022/12/28 13:28:50;;;;;;;18.13;12.27;;;0.10;99.90;;;;;;5113343;28;20144;-81
2022/12/28 13:31:39;;;;;;;22.85;14.82;;;0.10;99.90;;;;;;5096918;28;20043;-81